< Typhoon 200715 2007 Season Typhoon 200717 >
Typhoon 200716 (HAIYAN)
General InformationTrack Information on Google MapsDetailed Wind InformationAccess Analytics MapList of All Images || NewsDisaster Info.WeblogTrackbackTyphoon FrontResourceGoogle EarthGE AnimationAtom FeedGeoJSON
Detalied Best Track (Time Zone = UTC)
Year Month Day Hour Lat. Long. Pressure (hPa) Wind (kt) Class Image Chart
2007 9 30 18 27.8 172.9 1010 0 2 Image Chart
2007 10 1 00 28.2 172.2 1010 0 2 Image Chart
2007 10 1 06 28.8 171.1 1008 0 2 Image Chart
2007 10 1 12 29.1 169.9 1008 0 2 Image Chart
2007 10 1 18 29.3 169.0 1008 0 2 Image Chart
2007 10 2 00 29.4 168.2 1008 0 2 Image Chart
2007 10 2 06 29.0 167.6 1008 0 2 Image Chart
2007 10 2 12 28.4 167.8 1008 0 2 Image Chart
2007 10 2 18 27.8 168.7 1006 0 2 Image Chart
2007 10 3 00 27.8 169.4 1006 0 2 Image Chart
2007 10 3 06 27.9 170.0 1006 0 2 Image Chart
2007 10 3 12 27.9 170.7 1006 0 2 Image Chart
2007 10 3 18 27.8 171.0 1006 0 2 Image Chart
2007 10 4 00 27.7 171.3 1004 0 2 Image Chart
2007 10 4 06 27.6 171.6 1002 0 2 Image Chart
2007 10 4 12 27.5 171.7 1002 0 2 Image Chart
2007 10 4 18 27.5 171.9 1002 0 2 Image Chart
2007 10 5 00 27.7 172.0 1000 35 3 Image Chart
2007 10 5 06 28.0 172.1 996 40 3 Image Chart
2007 10 5 12 28.2 171.9 994 40 3 Image Chart
2007 10 5 18 28.4 171.6 994 40 3 Image Chart
2007 10 6 00 28.7 171.1 996 35 3 Image Chart
2007 10 6 06 29.3 170.5 1000 0 2 Image Chart
2007 10 6 12 30.2 170.2 1000 0 2 Image Chart
2007 10 6 18 31.7 170.2 1002 0 2 Image Chart
2007 10 7 00 33.6 170.7 1006 0 2 Image Chart
Japan Meteorological Agency Best Track Data | Correction Date : 2007-11-28
< Typhoon 200715 2007 Season Typhoon 200717 >

Help